sensor_id;sensor_type;location;lat;lon;timestamp;temperature;humidity
8002;DHT22;4046;48.774;8.732;2023-05-07T00:00:12;20.00;94.80
8002;DHT22;4046;48.774;8.732;2023-05-07T00:02:41;20.00;94.80
8002;DHT22;4046;48.774;8.732;2023-05-07T00:05:07;20.00;94.80
8002;DHT22;4046;48.774;8.732;2023-05-07T00:07:34;20.00;94.90
8002;DHT22;4046;48.774;8.732;2023-05-07T00:10:00;20.00;94.80
8002;DHT22;4046;48.774;8.732;2023-05-07T00:12:27;20.00;94.80
8002;DHT22;4046;48.774;8.732;2023-05-07T00:14:53;20.00;94.80
8002;DHT22;4046;48.774;8.732;2023-05-07T00:17:19;20.00;94.80
8002;DHT22;4046;48.774;8.732;2023-05-07T00:19:45;20.00;94.90
8002;DHT22;4046;48.774;8.732;2023-05-07T00:22:12;19.90;94.80
8002;DHT22;4046;48.774;8.732;2023-05-07T00:24:38;19.90;94.80
8002;DHT22;4046;48.774;8.732;2023-05-07T00:27:04;19.90;94.80
8002;DHT22;4046;48.774;8.732;2023-05-07T00:29:31;19.90;94.80
8002;DHT22;4046;48.774;8.732;2023-05-07T00:31:57;19.90;94.80
8002;DHT22;4046;48.774;8.732;2023-05-07T00:34:23;19.90;94.80
8002;DHT22;4046;48.774;8.732;2023-05-07T00:36:49;19.90;94.80
8002;DHT22;4046;48.774;8.732;2023-05-07T00:39:15;19.90;94.80
8002;DHT22;4046;48.774;8.732;2023-05-07T00:41:42;19.90;94.80
8002;DHT22;4046;48.774;8.732;2023-05-07T00:44:08;19.90;94.80
8002;DHT22;4046;48.774;8.732;2023-05-07T00:46:34;19.90;94.80
8002;DHT22;4046;48.774;8.732;2023-05-07T00:49:00;19.90;94.80
8002;DHT22;4046;48.774;8.732;2023-05-07T00:51:27;19.90;94.80
8002;DHT22;4046;48.774;8.732;2023-05-07T00:53:54;19.90;94.80
8002;DHT22;4046;48.774;8.732;2023-05-07T00:56:21;19.90;94.80
8002;DHT22;4046;48.774;8.732;2023-05-07T00:58:48;19.90;94.80
8002;DHT22;4046;48.774;8.732;2023-05-07T01:01:15;19.90;94.80
8002;DHT22;4046;48.774;8.732;2023-05-07T01:03:42;19.90;94.80
8002;DHT22;4046;48.774;8.732;2023-05-07T01:06:10;19.90;94.80
8002;DHT22;4046;48.774;8.732;2023-05-07T01:08:39;19.90;94.80
8002;DHT22;4046;48.774;8.732;2023-05-07T01:11:07;19.80;94.80
8002;DHT22;4046;48.774;8.732;2023-05-07T01:13:35;19.90;94.80
8002;DHT22;4046;48.774;8.732;2023-05-07T01:16:03;19.90;94.80
8002;DHT22;4046;48.774;8.732;2023-05-07T01:18:29;19.90;94.80
8002;DHT22;4046;48.774;8.732;2023-05-07T01:20:59;19.80;94.80
8002;DHT22;4046;48.774;8.732;2023-05-07T01:23:27;19.80;94.80
8002;DHT22;4046;48.774;8.732;2023-05-07T01:25:54;19.80;94.80
8002;DHT22;4046;48.774;8.732;2023-05-07T01:28:21;19.80;94.80
8002;DHT22;4046;48.774;8.732;2023-05-07T01:30:51;19.80;94.80
8002;DHT22;4046;48.774;8.732;2023-05-07T01:33:21;19.80;94.80
8002;DHT22;4046;48.774;8.732;2023-05-07T01:35:52;19.80;94.80
8002;DHT22;4046;48.774;8.732;2023-05-07T01:38:21;19.80;94.80
8002;DHT22;4046;48.774;8.732;2023-05-07T01:40:48;19.80;94.80
8002;DHT22;4046;48.774;8.732;2023-05-07T01:43:14;19.80;94.80
8002;DHT22;4046;48.774;8.732;2023-05-07T01:45:40;19.80;94.80
8002;DHT22;4046;48.774;8.732;2023-05-07T01:48:09;19.80;94.80
8002;DHT22;4046;48.774;8.732;2023-05-07T01:50:35;19.80;94.80
8002;DHT22;4046;48.774;8.732;2023-05-07T01:53:02;19.80;94.80
8002;DHT22;4046;48.774;8.732;2023-05-07T01:55:28;19.80;94.80
8002;DHT22;4046;48.774;8.732;2023-05-07T01:57:55;19.80;94.80
8002;DHT22;4046;48.774;8.732;2023-05-07T02:00:21;19.80;94.80
8002;DHT22;4046;48.774;8.732;2023-05-07T02:02:47;19.80;94.70
8002;DHT22;4046;48.774;8.732;2023-05-07T02:05:13;19.80;94.80
8002;DHT22;4046;48.774;8.732;2023-05-07T02:07:40;19.80;94.80
8002;DHT22;4046;48.774;8.732;2023-05-07T02:10:06;19.80;94.80
8002;DHT22;4046;48.774;8.732;2023-05-07T02:12:32;19.80;94.70
8002;DHT22;4046;48.774;8.732;2023-05-07T02:14:59;19.80;94.70
8002;DHT22;4046;48.774;8.732;2023-05-07T02:17:25;19.80;94.70
8002;DHT22;4046;48.774;8.732;2023-05-07T02:19:51;19.70;94.70
8002;DHT22;4046;48.774;8.732;2023-05-07T02:22:18;19.70;94.70
8002;DHT22;4046;48.774;8.732;2023-05-07T02:24:44;19.70;94.70
8002;DHT22;4046;48.774;8.732;2023-05-07T02:27:10;19.70;94.70
8002;DHT22;4046;48.774;8.732;2023-05-07T02:29:36;19.70;94.70
8002;DHT22;4046;48.774;8.732;2023-05-07T02:32:02;19.70;94.70
8002;DHT22;4046;48.774;8.732;2023-05-07T02:34:29;19.70;94.70
8002;DHT22;4046;48.774;8.732;2023-05-07T02:36:55;19.70;94.70
8002;DHT22;4046;48.774;8.732;2023-05-07T02:39:21;19.70;94.70
8002;DHT22;4046;48.774;8.732;2023-05-07T02:41:47;19.70;94.70
8002;DHT22;4046;48.774;8.732;2023-05-07T02:44:13;19.70;94.70
8002;DHT22;4046;48.774;8.732;2023-05-07T02:46:40;19.70;94.70
8002;DHT22;4046;48.774;8.732;2023-05-07T02:49:06;19.70;94.70
8002;DHT22;4046;48.774;8.732;2023-05-07T02:51:32;19.70;94.70
8002;DHT22;4046;48.774;8.732;2023-05-07T02:53:58;19.70;94.70
8002;DHT22;4046;48.774;8.732;2023-05-07T02:56:26;19.70;94.70
8002;DHT22;4046;48.774;8.732;2023-05-07T02:58:52;19.70;94.70
8002;DHT22;4046;48.774;8.732;2023-05-07T03:01:18;19.70;94.70
8002;DHT22;4046;48.774;8.732;2023-05-07T03:03:45;19.70;94.70
8002;DHT22;4046;48.774;8.732;2023-05-07T03:06:11;19.60;94.60
8002;DHT22;4046;48.774;8.732;2023-05-07T03:08:37;19.60;94.60
8002;DHT22;4046;48.774;8.732;2023-05-07T03:11:03;19.60;94.60
8002;DHT22;4046;48.774;8.732;2023-05-07T03:13:29;19.60;94.60
8002;DHT22;4046;48.774;8.732;2023-05-07T03:15:56;19.60;94.60
8002;DHT22;4046;48.774;8.732;2023-05-07T03:18:22;19.60;94.60
8002;DHT22;4046;48.774;8.732;2023-05-07T03:20:48;19.60;94.60
8002;DHT22;4046;48.774;8.732;2023-05-07T03:23:15;19.60;94.60
8002;DHT22;4046;48.774;8.732;2023-05-07T03:25:41;19.60;94.60
8002;DHT22;4046;48.774;8.732;2023-05-07T03:28:07;19.60;94.70
8002;DHT22;4046;48.774;8.732;2023-05-07T03:30:33;19.60;94.60
8002;DHT22;4046;48.774;8.732;2023-05-07T03:32:59;19.60;94.60
8002;DHT22;4046;48.774;8.732;2023-05-07T03:35:26;19.60;94.60
8002;DHT22;4046;48.774;8.732;2023-05-07T03:37:52;19.60;94.60
8002;DHT22;4046;48.774;8.732;2023-05-07T03:40:18;19.60;94.70
8002;DHT22;4046;48.774;8.732;2023-05-07T03:42:44;19.60;94.60
8002;DHT22;4046;48.774;8.732;2023-05-07T03:45:10;19.50;94.60
8002;DHT22;4046;48.774;8.732;2023-05-07T03:47:36;19.50;94.60
8002;DHT22;4046;48.774;8.732;2023-05-07T03:50:03;19.50;94.60
8002;DHT22;4046;48.774;8.732;2023-05-07T03:52:29;19.50;94.60
8002;DHT22;4046;48.774;8.732;2023-05-07T03:54:55;19.50;94.60
8002;DHT22;4046;48.774;8.732;2023-05-07T03:57:21;19.50;94.60
8002;DHT22;4046;48.774;8.732;2023-05-07T03:59:48;19.50;94.60
8002;DHT22;4046;48.774;8.732;2023-05-07T04:02:14;19.50;94.60
8002;DHT22;4046;48.774;8.732;2023-05-07T04:04:40;19.50;94.60
8002;DHT22;4046;48.774;8.732;2023-05-07T04:07:06;19.50;94.60
8002;DHT22;4046;48.774;8.732;2023-05-07T04:09:33;19.50;94.60
8002;DHT22;4046;48.774;8.732;2023-05-07T04:11:59;19.50;94.60
8002;DHT22;4046;48.774;8.732;2023-05-07T04:14:25;19.50;94.60
8002;DHT22;4046;48.774;8.732;2023-05-07T04:16:51;19.50;94.60
8002;DHT22;4046;48.774;8.732;2023-05-07T04:19:18;19.50;94.60
8002;DHT22;4046;48.774;8.732;2023-05-07T04:21:44;19.50;94.60
8002;DHT22;4046;48.774;8.732;2023-05-07T04:24:10;19.50;94.60
8002;DHT22;4046;48.774;8.732;2023-05-07T04:26:36;19.50;94.60
8002;DHT22;4046;48.774;8.732;2023-05-07T04:29:02;19.50;94.60
8002;DHT22;4046;48.774;8.732;2023-05-07T04:31:29;19.40;94.50
8002;DHT22;4046;48.774;8.732;2023-05-07T04:33:56;19.40;94.50
8002;DHT22;4046;48.774;8.732;2023-05-07T04:36:22;19.50;94.50
8002;DHT22;4046;48.774;8.732;2023-05-07T04:38:48;19.50;94.50
8002;DHT22;4046;48.774;8.732;2023-05-07T04:41:15;19.40;94.50
8002;DHT22;4046;48.774;8.732;2023-05-07T04:43:42;19.40;94.50
8002;DHT22;4046;48.774;8.732;2023-05-07T04:46:08;19.40;94.50
8002;DHT22;4046;48.774;8.732;2023-05-07T04:48:35;19.40;94.50
8002;DHT22;4046;48.774;8.732;2023-05-07T04:51:01;19.40;94.50
8002;DHT22;4046;48.774;8.732;2023-05-07T04:53:27;19.40;94.40
8002;DHT22;4046;48.774;8.732;2023-05-07T04:55:57;19.50;94.50
8002;DHT22;4046;48.774;8.732;2023-05-07T04:58:23;19.40;94.40
8002;DHT22;4046;48.774;8.732;2023-05-07T05:00:50;19.40;94.40
8002;DHT22;4046;48.774;8.732;2023-05-07T05:03:16;19.40;94.40
8002;DHT22;4046;48.774;8.732;2023-05-07T05:05:42;19.40;94.40
8002;DHT22;4046;48.774;8.732;2023-05-07T05:08:08;19.50;94.40
8002;DHT22;4046;48.774;8.732;2023-05-07T05:10:34;19.40;94.40
8002;DHT22;4046;48.774;8.732;2023-05-07T05:13:01;19.50;94.40
8002;DHT22;4046;48.774;8.732;2023-05-07T05:15:27;19.50;94.40
8002;DHT22;4046;48.774;8.732;2023-05-07T05:17:53;19.50;94.40
8002;DHT22;4046;48.774;8.732;2023-05-07T05:20:19;19.50;94.40
8002;DHT22;4046;48.774;8.732;2023-05-07T05:22:45;19.50;94.40
8002;DHT22;4046;48.774;8.732;2023-05-07T05:25:11;19.40;94.30
8002;DHT22;4046;48.774;8.732;2023-05-07T05:27:38;19.40;94.30
8002;DHT22;4046;48.774;8.732;2023-05-07T05:30:04;19.40;94.30
8002;DHT22;4046;48.774;8.732;2023-05-07T05:32:31;19.40;94.30
8002;DHT22;4046;48.774;8.732;2023-05-07T05:34:57;19.50;94.30
8002;DHT22;4046;48.774;8.732;2023-05-07T05:37:24;19.50;94.40
8002;DHT22;4046;48.774;8.732;2023-05-07T05:39:50;19.40;94.30
8002;DHT22;4046;48.774;8.732;2023-05-07T05:42:17;19.50;94.30
8002;DHT22;4046;48.774;8.732;2023-05-07T05:44:43;19.50;94.30
8002;DHT22;4046;48.774;8.732;2023-05-07T05:47:09;19.50;94.30
8002;DHT22;4046;48.774;8.732;2023-05-07T05:49:35;19.50;94.30
8002;DHT22;4046;48.774;8.732;2023-05-07T05:52:01;19.50;94.30
8002;DHT22;4046;48.774;8.732;2023-05-07T05:54:28;19.50;94.30
8002;DHT22;4046;48.774;8.732;2023-05-07T05:56:54;19.50;94.30
8002;DHT22;4046;48.774;8.732;2023-05-07T05:59:20;19.50;94.30
8002;DHT22;4046;48.774;8.732;2023-05-07T06:01:47;19.50;94.30
8002;DHT22;4046;48.774;8.732;2023-05-07T06:04:13;19.50;94.20
8002;DHT22;4046;48.774;8.732;2023-05-07T06:06:39;19.50;94.20
8002;DHT22;4046;48.774;8.732;2023-05-07T06:09:05;19.50;94.20
8002;DHT22;4046;48.774;8.732;2023-05-07T06:11:32;19.50;94.20
8002;DHT22;4046;48.774;8.732;2023-05-07T06:13:58;19.50;94.20
8002;DHT22;4046;48.774;8.732;2023-05-07T06:16:25;19.50;94.20
8002;DHT22;4046;48.774;8.732;2023-05-07T06:18:51;19.50;94.20
8002;DHT22;4046;48.774;8.732;2023-05-07T06:21:17;19.50;94.20
8002;DHT22;4046;48.774;8.732;2023-05-07T06:23:43;19.50;94.20
8002;DHT22;4046;48.774;8.732;2023-05-07T06:26:10;19.50;94.10
8002;DHT22;4046;48.774;8.732;2023-05-07T06:28:36;19.60;94.10
8002;DHT22;4046;48.774;8.732;2023-05-07T06:31:16;19.60;94.10
8002;DHT22;4046;48.774;8.732;2023-05-07T06:33:44;19.70;94.10
8002;DHT22;4046;48.774;8.732;2023-05-07T06:36:11;19.70;94.00
8002;DHT22;4046;48.774;8.732;2023-05-07T06:38:37;19.80;94.00
8002;DHT22;4046;48.774;8.732;2023-05-07T06:41:03;19.80;94.00
8002;DHT22;4046;48.774;8.732;2023-05-07T06:43:29;19.80;94.00
8002;DHT22;4046;48.774;8.732;2023-05-07T06:45:56;19.80;93.90
8002;DHT22;4046;48.774;8.732;2023-05-07T06:48:22;19.90;93.90
8002;DHT22;4046;48.774;8.732;2023-05-07T06:50:48;19.90;93.90
8002;DHT22;4046;48.774;8.732;2023-05-07T06:53:14;19.90;93.90
8002;DHT22;4046;48.774;8.732;2023-05-07T06:55:40;19.90;93.80
8002;DHT22;4046;48.774;8.732;2023-05-07T06:58:07;19.90;93.80
8002;DHT22;4046;48.774;8.732;2023-05-07T07:00:33;19.90;93.80
8002;DHT22;4046;48.774;8.732;2023-05-07T07:03:00;20.00;93.80
8002;DHT22;4046;48.774;8.732;2023-05-07T07:05:27;20.00;93.80
8002;DHT22;4046;48.774;8.732;2023-05-07T07:07:53;20.00;93.80
8002;DHT22;4046;48.774;8.732;2023-05-07T07:10:20;20.00;93.80
8002;DHT22;4046;48.774;8.732;2023-05-07T07:12:46;20.00;93.80
8002;DHT22;4046;48.774;8.732;2023-05-07T07:15:13;20.00;93.80
8002;DHT22;4046;48.774;8.732;2023-05-07T07:17:40;20.00;93.90
8002;DHT22;4046;48.774;8.732;2023-05-07T07:20:06;20.00;93.80
8002;DHT22;4046;48.774;8.732;2023-05-07T07:22:33;20.00;93.80
8002;DHT22;4046;48.774;8.732;2023-05-07T07:24:59;20.00;93.70
8002;DHT22;4046;48.774;8.732;2023-05-07T07:27:25;20.00;93.70
8002;DHT22;4046;48.774;8.732;2023-05-07T07:29:52;20.00;93.80
8002;DHT22;4046;48.774;8.732;2023-05-07T07:32:18;20.00;93.80
8002;DHT22;4046;48.774;8.732;2023-05-07T07:34:44;20.00;93.80
8002;DHT22;4046;48.774;8.732;2023-05-07T07:37:10;19.90;93.70
8002;DHT22;4046;48.774;8.732;2023-05-07T07:39:36;19.90;93.80
8002;DHT22;4046;48.774;8.732;2023-05-07T07:42:03;20.00;93.80
8002;DHT22;4046;48.774;8.732;2023-05-07T07:44:29;20.00;93.80
8002;DHT22;4046;48.774;8.732;2023-05-07T07:46:56;20.00;94.10
8002;DHT22;4046;48.774;8.732;2023-05-07T07:49:22;20.00;93.70
8002;DHT22;4046;48.774;8.732;2023-05-07T07:51:48;20.00;93.70
8002;DHT22;4046;48.774;8.732;2023-05-07T07:54:14;20.00;93.70
8002;DHT22;4046;48.774;8.732;2023-05-07T07:56:40;20.00;93.70
8002;DHT22;4046;48.774;8.732;2023-05-07T07:59:06;20.00;93.70
8002;DHT22;4046;48.774;8.732;2023-05-07T08:01:33;20.10;93.70
8002;DHT22;4046;48.774;8.732;2023-05-07T08:03:59;20.00;93.60
8002;DHT22;4046;48.774;8.732;2023-05-07T08:06:25;20.10;93.70
8002;DHT22;4046;48.774;8.732;2023-05-07T08:08:52;20.10;93.70
8002;DHT22;4046;48.774;8.732;2023-05-07T08:11:19;20.10;93.60
8002;DHT22;4046;48.774;8.732;2023-05-07T08:13:45;20.10;95.60
8002;DHT22;4046;48.774;8.732;2023-05-07T08:16:12;20.00;95.80
8002;DHT22;4046;48.774;8.732;2023-05-07T08:18:38;19.90;95.80
8002;DHT22;4046;48.774;8.732;2023-05-07T08:21:04;19.80;96.50
8002;DHT22;4046;48.774;8.732;2023-05-07T08:23:31;19.80;96.70
8002;DHT22;4046;48.774;8.732;2023-05-07T08:25:57;19.90;97.40
8002;DHT22;4046;48.774;8.732;2023-05-07T08:28:24;19.90;97.70
8002;DHT22;4046;48.774;8.732;2023-05-07T08:30:50;19.90;97.50
8002;DHT22;4046;48.774;8.732;2023-05-07T08:33:17;20.00;97.30
8002;DHT22;4046;48.774;8.732;2023-05-07T08:35:43;20.00;97.50
8002;DHT22;4046;48.774;8.732;2023-05-07T08:38:09;20.00;97.60
8002;DHT22;4046;48.774;8.732;2023-05-07T08:40:39;20.10;97.90
8002;DHT22;4046;48.774;8.732;2023-05-07T08:43:07;20.30;98.20
8002;DHT22;4046;48.774;8.732;2023-05-07T08:45:34;20.40;98.40
8002;DHT22;4046;48.774;8.732;2023-05-07T08:48:03;20.50;98.20
8002;DHT22;4046;48.774;8.732;2023-05-07T08:50:31;20.60;98.10
8002;DHT22;4046;48.774;8.732;2023-05-07T08:52:57;20.70;98.20
8002;DHT22;4046;48.774;8.732;2023-05-07T08:55:24;20.80;98.20
8002;DHT22;4046;48.774;8.732;2023-05-07T08:57:50;20.80;97.70
8002;DHT22;4046;48.774;8.732;2023-05-07T09:00:18;20.70;97.80
8002;DHT22;4046;48.774;8.732;2023-05-07T09:02:44;20.70;97.70
8002;DHT22;4046;48.774;8.732;2023-05-07T09:05:10;20.70;97.70
8002;DHT22;4046;48.774;8.732;2023-05-07T09:07:37;20.70;97.80
8002;DHT22;4046;48.774;8.732;2023-05-07T09:10:04;20.70;98.00
8002;DHT22;4046;48.774;8.732;2023-05-07T09:12:30;20.70;98.30
8002;DHT22;4046;48.774;8.732;2023-05-07T09:14:57;20.70;98.10
8002;DHT22;4046;48.774;8.732;2023-05-07T09:17:23;20.70;98.00
8002;DHT22;4046;48.774;8.732;2023-05-07T09:19:49;20.80;97.70
8002;DHT22;4046;48.774;8.732;2023-05-07T09:22:15;20.80;97.80
8002;DHT22;4046;48.774;8.732;2023-05-07T09:24:48;20.90;98.00
8002;DHT22;4046;48.774;8.732;2023-05-07T09:27:14;21.00;97.90
8002;DHT22;4046;48.774;8.732;2023-05-07T09:29:41;20.90;97.80
8002;DHT22;4046;48.774;8.732;2023-05-07T09:32:07;21.00;97.80
8002;DHT22;4046;48.774;8.732;2023-05-07T09:34:34;21.00;97.80
8002;DHT22;4046;48.774;8.732;2023-05-07T09:37:01;21.00;97.50
8002;DHT22;4046;48.774;8.732;2023-05-07T09:39:42;21.00;97.60
8002;DHT22;4046;48.774;8.732;2023-05-07T09:42:08;21.00;97.40
8002;DHT22;4046;48.774;8.732;2023-05-07T09:44:35;21.00;97.50
8002;DHT22;4046;48.774;8.732;2023-05-07T09:47:04;20.90;97.40
8002;DHT22;4046;48.774;8.732;2023-05-07T09:49:37;20.90;97.40
8002;DHT22;4046;48.774;8.732;2023-05-07T09:52:05;20.90;97.30
8002;DHT22;4046;48.774;8.732;2023-05-07T09:54:37;20.90;97.20
8002;DHT22;4046;48.774;8.732;2023-05-07T09:57:05;20.90;97.10
8002;DHT22;4046;48.774;8.732;2023-05-07T09:59:32;20.90;97.00
8002;DHT22;4046;48.774;8.732;2023-05-07T10:01:59;20.90;97.20
8002;DHT22;4046;48.774;8.732;2023-05-07T10:04:26;20.90;97.10
8002;DHT22;4046;48.774;8.732;2023-05-07T10:06:53;21.00;97.10
8002;DHT22;4046;48.774;8.732;2023-05-07T10:09:21;21.00;97.00
8002;DHT22;4046;48.774;8.732;2023-05-07T10:11:51;21.00;97.00
8002;DHT22;4046;48.774;8.732;2023-05-07T10:14:20;21.00;96.90
8002;DHT22;4046;48.774;8.732;2023-05-07T10:16:47;21.00;96.70
8002;DHT22;4046;48.774;8.732;2023-05-07T10:19:14;21.00;96.60
8002;DHT22;4046;48.774;8.732;2023-05-07T10:21:48;21.00;96.80
8002;DHT22;4046;48.774;8.732;2023-05-07T10:24:21;21.10;97.90
8002;DHT22;4046;48.774;8.732;2023-05-07T10:26:50;21.10;98.00
8002;DHT22;4046;48.774;8.732;2023-05-07T10:35:02;21.00;98.30
8002;DHT22;4046;48.774;8.732;2023-05-07T10:37:30;20.90;98.50
8002;DHT22;4046;48.774;8.732;2023-05-07T10:39:57;20.80;98.10
8002;DHT22;4046;48.774;8.732;2023-05-07T10:42:23;20.80;98.20
8002;DHT22;4046;48.774;8.732;2023-05-07T10:44:50;20.70;99.00
8002;DHT22;4046;48.774;8.732;2023-05-07T10:47:17;20.70;99.80
8002;DHT22;4046;48.774;8.732;2023-05-07T10:52:18;20.60;99.70
8002;DHT22;4046;48.774;8.732;2023-05-07T10:54:45;20.60;99.90
8002;DHT22;4046;48.774;8.732;2023-05-07T10:57:36;20.50;99.90
8002;DHT22;4046;48.774;8.732;2023-05-07T11:00:03;20.50;99.90
8002;DHT22;4046;48.774;8.732;2023-05-07T11:05:27;20.30;99.90
8002;DHT22;4046;48.774;8.732;2023-05-07T11:08:01;20.30;99.90
8002;DHT22;4046;48.774;8.732;2023-05-07T11:10:49;20.20;99.90
8002;DHT22;4046;48.774;8.732;2023-05-07T11:13:16;20.20;99.90
8002;DHT22;4046;48.774;8.732;2023-05-07T11:15:47;20.20;99.90
8002;DHT22;4046;48.774;8.732;2023-05-07T11:18:15;20.20;99.90
8002;DHT22;4046;48.774;8.732;2023-05-07T11:20:51;20.10;99.90
8002;DHT22;4046;48.774;8.732;2023-05-07T11:26:05;20.10;99.90
8002;DHT22;4046;48.774;8.732;2023-05-07T11:28:38;20.10;99.90
8002;DHT22;4046;48.774;8.732;2023-05-07T11:31:04;20.10;99.90
8002;DHT22;4046;48.774;8.732;2023-05-07T11:33:31;20.10;99.90
8002;DHT22;4046;48.774;8.732;2023-05-07T11:35:59;20.20;99.90
8002;DHT22;4046;48.774;8.732;2023-05-07T11:38:25;20.30;99.90
8002;DHT22;4046;48.774;8.732;2023-05-07T11:40:53;20.30;99.90
8002;DHT22;4046;48.774;8.732;2023-05-07T11:43:19;20.40;99.90
8002;DHT22;4046;48.774;8.732;2023-05-07T11:45:46;20.50;99.90
8002;DHT22;4046;48.774;8.732;2023-05-07T11:48:13;20.50;99.90
8002;DHT22;4046;48.774;8.732;2023-05-07T11:50:54;20.60;99.90
8002;DHT22;4046;48.774;8.732;2023-05-07T11:53:24;20.60;99.90
8002;DHT22;4046;48.774;8.732;2023-05-07T11:55:57;20.60;99.90
8002;DHT22;4046;48.774;8.732;2023-05-07T11:58:24;20.70;99.90
8002;DHT22;4046;48.774;8.732;2023-05-07T12:00:54;20.70;99.90
8002;DHT22;4046;48.774;8.732;2023-05-07T12:03:21;20.70;99.90
8002;DHT22;4046;48.774;8.732;2023-05-07T12:05:47;20.80;99.90
8002;DHT22;4046;48.774;8.732;2023-05-07T12:08:18;20.80;99.90
8002;DHT22;4046;48.774;8.732;2023-05-07T12:10:45;20.90;99.90
8002;DHT22;4046;48.774;8.732;2023-05-07T12:13:17;20.90;99.90
8002;DHT22;4046;48.774;8.732;2023-05-07T12:15:44;20.90;99.90
8002;DHT22;4046;48.774;8.732;2023-05-07T12:18:11;21.00;99.90
8002;DHT22;4046;48.774;8.732;2023-05-07T12:20:38;21.00;99.90
8002;DHT22;4046;48.774;8.732;2023-05-07T12:23:05;21.00;99.90
8002;DHT22;4046;48.774;8.732;2023-05-07T12:25:35;21.10;99.90
8002;DHT22;4046;48.774;8.732;2023-05-07T12:28:02;21.10;99.80
8002;DHT22;4046;48.774;8.732;2023-05-07T12:30:40;21.10;99.70
8002;DHT22;4046;48.774;8.732;2023-05-07T12:33:06;21.10;99.60
8002;DHT22;4046;48.774;8.732;2023-05-07T12:35:38;21.10;99.50
8002;DHT22;4046;48.774;8.732;2023-05-07T12:38:11;21.10;99.40
8002;DHT22;4046;48.774;8.732;2023-05-07T12:40:39;21.10;99.40
8002;DHT22;4046;48.774;8.732;2023-05-07T12:43:05;21.10;99.30
8002;DHT22;4046;48.774;8.732;2023-05-07T12:45:37;21.20;99.20
8002;DHT22;4046;48.774;8.732;2023-05-07T12:48:04;21.20;99.10
8002;DHT22;4046;48.774;8.732;2023-05-07T12:50:33;21.20;99.10
8002;DHT22;4046;48.774;8.732;2023-05-07T12:53:00;21.30;99.40
8002;DHT22;4046;48.774;8.732;2023-05-07T12:55:32;21.30;99.70
8002;DHT22;4046;48.774;8.732;2023-05-07T12:58:01;21.30;99.60
8002;DHT22;4046;48.774;8.732;2023-05-07T13:00:37;21.40;99.50
8002;DHT22;4046;48.774;8.732;2023-05-07T13:03:04;21.40;99.40
8002;DHT22;4046;48.774;8.732;2023-05-07T13:05:31;21.40;99.30
8002;DHT22;4046;48.774;8.732;2023-05-07T13:07:58;21.40;99.30
8002;DHT22;4046;48.774;8.732;2023-05-07T13:10:24;21.40;99.20
8002;DHT22;4046;48.774;8.732;2023-05-07T13:12:51;21.40;99.10
8002;DHT22;4046;48.774;8.732;2023-05-07T13:15:17;21.40;99.10
8002;DHT22;4046;48.774;8.732;2023-05-07T13:17:44;21.40;99.00
8002;DHT22;4046;48.774;8.732;2023-05-07T13:20:11;21.40;99.30
8002;DHT22;4046;48.774;8.732;2023-05-07T13:22:39;21.40;99.20
8002;DHT22;4046;48.774;8.732;2023-05-07T13:25:06;21.40;99.50
8002;DHT22;4046;48.774;8.732;2023-05-07T13:27:32;21.40;99.90
8002;DHT22;4046;48.774;8.732;2023-05-07T13:30:04;21.40;99.90
8002;DHT22;4046;48.774;8.732;2023-05-07T13:32:30;21.30;99.90
8002;DHT22;4046;48.774;8.732;2023-05-07T13:34:57;21.30;99.90
8002;DHT22;4046;48.774;8.732;2023-05-07T13:37:23;21.30;99.90
8002;DHT22;4046;48.774;8.732;2023-05-07T13:39:49;21.30;99.90
8002;DHT22;4046;48.774;8.732;2023-05-07T13:42:16;21.30;99.90
8002;DHT22;4046;48.774;8.732;2023-05-07T13:44:42;21.40;99.90
8002;DHT22;4046;48.774;8.732;2023-05-07T13:47:10;21.40;99.90
8002;DHT22;4046;48.774;8.732;2023-05-07T13:49:36;21.50;99.90
8002;DHT22;4046;48.774;8.732;2023-05-07T13:52:03;21.50;99.90
8002;DHT22;4046;48.774;8.732;2023-05-07T13:54:30;21.50;99.90
8002;DHT22;4046;48.774;8.732;2023-05-07T13:56:56;21.50;99.90
8002;DHT22;4046;48.774;8.732;2023-05-07T13:59:22;21.50;99.90
8002;DHT22;4046;48.774;8.732;2023-05-07T14:01:48;21.50;99.90
8002;DHT22;4046;48.774;8.732;2023-05-07T14:04:15;21.50;99.90
8002;DHT22;4046;48.774;8.732;2023-05-07T14:06:41;21.50;99.90
8002;DHT22;4046;48.774;8.732;2023-05-07T14:09:07;21.50;99.90
8002;DHT22;4046;48.774;8.732;2023-05-07T14:11:34;21.50;99.90
8002;DHT22;4046;48.774;8.732;2023-05-07T14:14:00;21.50;99.90
8002;DHT22;4046;48.774;8.732;2023-05-07T14:16:26;21.50;99.90
8002;DHT22;4046;48.774;8.732;2023-05-07T14:18:52;21.60;99.90
8002;DHT22;4046;48.774;8.732;2023-05-07T14:21:18;21.60;99.90
8002;DHT22;4046;48.774;8.732;2023-05-07T14:23:44;21.60;99.90
8002;DHT22;4046;48.774;8.732;2023-05-07T14:26:11;21.60;99.90
8002;DHT22;4046;48.774;8.732;2023-05-07T14:28:37;21.60;99.90
8002;DHT22;4046;48.774;8.732;2023-05-07T14:31:07;21.60;99.90
8002;DHT22;4046;48.774;8.732;2023-05-07T14:33:33;21.70;99.90
8002;DHT22;4046;48.774;8.732;2023-05-07T14:35:59;21.70;99.90
8002;DHT22;4046;48.774;8.732;2023-05-07T14:38:25;21.70;99.90
8002;DHT22;4046;48.774;8.732;2023-05-07T14:40:51;21.70;99.90
8002;DHT22;4046;48.774;8.732;2023-05-07T14:43:21;21.80;99.90
8002;DHT22;4046;48.774;8.732;2023-05-07T14:45:47;21.90;99.90
8002;DHT22;4046;48.774;8.732;2023-05-07T14:48:13;21.90;99.90
8002;DHT22;4046;48.774;8.732;2023-05-07T14:50:47;21.80;99.90
8002;DHT22;4046;48.774;8.732;2023-05-07T14:53:13;21.80;99.90
8002;DHT22;4046;48.774;8.732;2023-05-07T14:55:39;21.80;99.90
8002;DHT22;4046;48.774;8.732;2023-05-07T14:58:05;21.80;99.90
8002;DHT22;4046;48.774;8.732;2023-05-07T15:00:32;21.80;99.90
8002;DHT22;4046;48.774;8.732;2023-05-07T15:03:08;21.80;99.90
8002;DHT22;4046;48.774;8.732;2023-05-07T15:05:35;21.80;99.90
8002;DHT22;4046;48.774;8.732;2023-05-07T15:08:02;21.80;99.90
8002;DHT22;4046;48.774;8.732;2023-05-07T15:10:28;21.80;99.90
8002;DHT22;4046;48.774;8.732;2023-05-07T15:12:54;21.80;99.90
8002;DHT22;4046;48.774;8.732;2023-05-07T15:15:21;21.80;99.90
8002;DHT22;4046;48.774;8.732;2023-05-07T15:17:47;21.80;99.90
8002;DHT22;4046;48.774;8.732;2023-05-07T15:20:13;21.90;99.80
8002;DHT22;4046;48.774;8.732;2023-05-07T15:22:39;21.90;99.80
8002;DHT22;4046;48.774;8.732;2023-05-07T15:25:07;21.90;99.70
8002;DHT22;4046;48.774;8.732;2023-05-07T15:27:34;21.90;99.60
8002;DHT22;4046;48.774;8.732;2023-05-07T15:30:00;21.90;99.50
8002;DHT22;4046;48.774;8.732;2023-05-07T15:32:26;21.90;99.50
8002;DHT22;4046;48.774;8.732;2023-05-07T15:34:52;22.00;99.50
8002;DHT22;4046;48.774;8.732;2023-05-07T15:37:19;22.00;99.40
8002;DHT22;4046;48.774;8.732;2023-05-07T15:39:45;22.00;99.40
8002;DHT22;4046;48.774;8.732;2023-05-07T15:42:11;22.00;99.70
8002;DHT22;4046;48.774;8.732;2023-05-07T15:44:37;22.00;99.30
8002;DHT22;4046;48.774;8.732;2023-05-07T15:47:04;22.00;99.30
8002;DHT22;4046;48.774;8.732;2023-05-07T15:49:30;22.00;99.20
8002;DHT22;4046;48.774;8.732;2023-05-07T15:51:56;22.10;99.20
8002;DHT22;4046;48.774;8.732;2023-05-07T15:54:23;22.10;99.10
8002;DHT22;4046;48.774;8.732;2023-05-07T15:56:50;22.10;99.10
8002;DHT22;4046;48.774;8.732;2023-05-07T15:59:16;22.10;99.10
8002;DHT22;4046;48.774;8.732;2023-05-07T16:01:42;22.10;99.10
8002;DHT22;4046;48.774;8.732;2023-05-07T16:04:10;22.10;99.00
8002;DHT22;4046;48.774;8.732;2023-05-07T16:06:36;22.10;99.00
8002;DHT22;4046;48.774;8.732;2023-05-07T16:09:02;22.10;99.00
8002;DHT22;4046;48.774;8.732;2023-05-07T16:11:29;22.10;99.00
8002;DHT22;4046;48.774;8.732;2023-05-07T16:13:55;22.10;99.10